Time,TemperatureF,DewpointF,PressureIn,WindDirection,WindDirectionDegrees,WindSpeedMPH,WindSpeedGustMPH,Humidity,HourlyPrecipIn,Conditions,Clouds,dailyrainin,SoftwareType,DateUTC
2013-07-04 00:12:00,70.3,69.0,30.19,NNW,335,0.0,0.0,96,0.00,,,0.00,weatherlink.com 1.10,2013-07-04 04:12:00,
2013-07-04 00:27:00,70.2,69.0,30.18,NNW,335,0.0,0.0,96,0.00,,,0.00,weatherlink.com 1.10,2013-07-04 04:27:00,
2013-07-04 00:42:00,70.0,69.0,30.18,NNW,335,0.0,0.0,96,0.00,,,0.00,weatherlink.com 1.10,2013-07-04 04:42:00,
2013-07-04 00:57:00,69.9,69.0,30.18,NNW,335,0.0,0.0,96,0.00,,,0.00,weatherlink.com 1.10,2013-07-04 04:57:00,
2013-07-04 01:12:00,69.8,69.0,30.18,NNW,334,0.0,0.0,96,0.00,,,0.00,weatherlink.com 1.10,2013-07-04 05:12:00,
2013-07-04 01:28:00,69.7,69.0,30.18,NNW,335,0.0,0.0,96,0.00,,,0.00,weatherlink.com 1.10,2013-07-04 05:28:00,
2013-07-04 01:43:00,69.6,69.0,30.18,NNW,335,0.0,0.0,96,0.00,,,0.00,weatherlink.com 1.10,2013-07-04 05:43:00,
2013-07-04 01:58:00,69.3,68.0,30.17,NNW,335,0.0,0.0,96,0.00,,,0.00,weatherlink.com 1.10,2013-07-04 05:58:00,
2013-07-04 02:13:00,69.2,68.0,30.17,NNW,335,0.0,0.0,96,0.00,,,0.00,weatherlink.com 1.10,2013-07-04 06:13:00,
2013-07-04 02:28:00,69.2,68.0,30.16,NNW,335,0.0,0.0,96,0.00,,,0.00,weatherlink.com 1.10,2013-07-04 06:28:00,
2013-07-04 02:43:00,69.4,69.0,30.16,NNW,335,0.0,0.0,97,0.00,,,0.00,weatherlink.com 1.10,2013-07-04 06:43:00,
2013-07-04 02:58:00,69.4,69.0,30.16,NNW,335,0.0,0.0,97,0.00,,,0.00,weatherlink.com 1.10,2013-07-04 06:58:00,
2013-07-04 03:13:00,69.4,69.0,30.17,NNW,335,0.0,0.0,97,0.00,,,0.00,weatherlink.com 1.10,2013-07-04 07:13:00,
2013-07-04 03:28:00,69.2,68.0,30.18,NNW,335,0.0,0.0,97,0.00,,,0.00,weatherlink.com 1.10,2013-07-04 07:28:00,
2013-07-04 03:43:00,69.0,68.0,30.18,NNW,335,0.0,0.0,97,0.00,,,0.00,weatherlink.com 1.10,2013-07-04 07:43:00,
2013-07-04 03:58:00,68.8,68.0,30.18,NNW,335,0.0,0.0,97,0.00,,,0.00,weatherlink.com 1.10,2013-07-04 07:58:00,
2013-07-04 04:13:00,68.6,68.0,30.18,NNW,335,0.0,0.0,97,0.00,,,0.00,weatherlink.com 1.10,2013-07-04 08:13:00,
2013-07-04 04:28:00,68.3,68.0,30.19,NNW,335,0.0,0.0,97,0.00,,,0.00,weatherlink.com 1.10,2013-07-04 08:28:00,
2013-07-04 04:43:00,68.5,68.0,30.19,NNW,335,0.0,0.0,97,0.00,,,0.00,weatherlink.com 1.10,2013-07-04 08:43:00,
2013-07-04 04:58:00,68.6,68.0,30.18,NNW,335,0.0,0.0,97,0.00,,,0.00,weatherlink.com 1.10,2013-07-04 08:58:00,
2013-07-04 05:13:00,68.5,68.0,30.19,NNW,335,0.0,0.0,97,0.00,,,0.00,weatherlink.com 1.10,2013-07-04 09:13:00,
2013-07-04 05:28:00,68.6,68.0,30.19,NNW,335,0.0,0.0,97,0.00,,,0.00,weatherlink.com 1.10,2013-07-04 09:28:00,
2013-07-04 05:43:00,68.6,68.0,30.19,NNW,335,0.0,0.0,97,0.00,,,0.00,weatherlink.com 1.10,2013-07-04 09:43:00,
2013-07-04 05:58:00,68.5,68.0,30.20,NNW,335,0.0,0.0,97,0.00,,,0.00,weatherlink.com 1.10,2013-07-04 09:58:00,
2013-07-04 06:13:00,68.6,68.0,30.20,NNW,335,0.0,0.0,97,0.00,,,0.00,weatherlink.com 1.10,2013-07-04 10:13:00,
2013-07-04 06:28:00,68.9,68.0,30.20,NNW,335,0.0,0.0,97,0.01,,,0.01,weatherlink.com 1.10,2013-07-04 10:28:00,
2013-07-04 06:43:00,69.1,68.0,30.21,NNW,335,0.0,0.0,97,0.01,,,0.01,weatherlink.com 1.10,2013-07-04 10:43:00,
2013-07-04 06:58:00,69.6,69.0,30.21,NW,312,0.0,0.0,97,0.01,,,0.01,weatherlink.com 1.10,2013-07-04 10:58:00,
2013-07-04 07:13:00,70.0,69.0,30.21,NW,312,0.0,0.0,97,0.01,,,0.01,weatherlink.com 1.10,2013-07-04 11:13:00,
2013-07-04 07:28:00,70.4,70.0,30.21,NW,311,0.0,0.0,97,0.00,,,0.01,weatherlink.com 1.10,2013-07-04 11:28:00,
2013-07-04 07:43:00,72.6,72.0,30.21,NW,311,0.0,0.0,98,0.00,,,0.01,weatherlink.com 1.10,2013-07-04 11:43:00,
2013-07-04 07:58:00,74.2,73.0,30.21,NW,312,0.0,0.0,96,0.00,,,0.01,weatherlink.com 1.10,2013-07-04 11:58:00,
2013-07-04 08:13:00,73.4,72.0,30.22,NW,311,0.0,0.0,95,0.00,,,0.01,weatherlink.com 1.10,2013-07-04 12:13:00,
2013-07-04 08:28:00,72.6,71.0,30.23,NW,312,0.0,1.0,95,0.00,,,0.01,weatherlink.com 1.10,2013-07-04 12:28:00,
2013-07-04 08:43:00,73.2,72.0,30.23,West,273,0.0,0.0,95,0.00,,,0.01,weatherlink.com 1.10,2013-07-04 12:43:00,
2013-07-04 08:58:00,73.3,72.0,30.23,West,273,0.0,0.0,94,0.00,,,0.01,weatherlink.com 1.10,2013-07-04 12:58:00,
2013-07-04 09:13:00,73.8,70.0,30.23,SW,230,0.0,3.0,89,0.00,,,0.01,weatherlink.com 1.10,2013-07-04 13:13:00,
2013-07-04 09:28:00,75.6,71.0,30.24,SW,218,0.0,2.0,85,0.00,,,0.01,weatherlink.com 1.10,2013-07-04 13:28:00,
2013-07-04 09:43:00,76.0,71.0,30.24,West,280,1.0,4.0,84,0.00,,,0.01,weatherlink.com 1.10,2013-07-04 13:43:00,
2013-07-04 09:58:00,75.7,70.0,30.23,West,274,2.0,6.0,83,0.00,,,0.01,weatherlink.com 1.10,2013-07-04 13:58:00,
2013-07-04 10:13:00,76.0,71.0,30.23,WNW,284,2.0,3.0,84,0.00,,,0.01,weatherlink.com 1.10,2013-07-04 14:13:00,
2013-07-04 10:28:00,76.0,71.0,30.23,WNW,285,4.0,5.0,83,0.00,,,0.01,weatherlink.com 1.10,2013-07-04 14:28:00,
2013-07-04 10:43:00,76.4,71.0,30.23,WSW,250,1.0,1.0,84,0.00,,,0.01,weatherlink.com 1.10,2013-07-04 14:43:00,
2013-07-04 10:58:00,77.3,71.0,30.23,ENE,70,2.0,4.0,81,0.00,,,0.01,weatherlink.com 1.10,2013-07-04 14:58:00,
2013-07-04 11:14:00,77.4,71.0,30.23,SW,225,0.0,4.0,80,0.00,,,0.01,weatherlink.com 1.10,2013-07-04 15:14:00,
2013-07-04 11:29:00,78.0,71.0,30.23,WSW,239,0.0,5.0,79,0.00,,,0.01,weatherlink.com 1.10,2013-07-04 15:29:00,
2013-07-04 11:44:00,78.2,71.0,30.22,West,263,3.0,5.0,79,0.00,,,0.01,weatherlink.com 1.10,2013-07-04 15:44:00,
2013-07-04 11:59:00,79.5,71.0,30.22,West,260,3.0,5.0,75,0.00,,,0.01,weatherlink.com 1.10,2013-07-04 15:59:00,
2013-07-04 12:14:00,80.4,70.0,30.21,WSW,240,3.0,5.0,71,0.00,,,0.01,weatherlink.com 1.10,2013-07-04 16:14:00,
2013-07-04 12:29:00,80.5,71.0,30.21,SW,218,0.0,5.0,73,0.00,,,0.01,weatherlink.com 1.10,2013-07-04 16:29:00,
2013-07-04 12:44:00,81.1,70.0,30.21,WSW,258,3.0,5.0,69,0.00,,,0.01,weatherlink.com 1.10,2013-07-04 16:44:00,
2013-07-04 12:59:00,81.9,70.0,30.21,WSW,239,2.0,7.0,67,0.00,,,0.01,weatherlink.com 1.10,2013-07-04 16:59:00,
2013-07-04 13:14:00,83.0,70.0,30.21,WSW,249,4.0,6.0,65,0.00,,,0.01,weatherlink.com 1.10,2013-07-04 17:14:00,
2013-07-04 13:29:00,82.4,70.0,30.21,SW,222,1.0,6.0,67,0.00,,,0.01,weatherlink.com 1.10,2013-07-04 17:29:00,
2013-07-04 13:44:00,82.7,70.0,30.20,NW,311,1.0,5.0,65,0.00,,,0.01,weatherlink.com 1.10,2013-07-04 17:44:00,
2013-07-04 13:59:00,82.8,70.0,30.21,SSW,204,0.0,5.0,66,0.00,,,0.01,weatherlink.com 1.10,2013-07-04 17:59:00,
2013-07-04 14:14:00,82.0,71.0,30.21,WNW,302,1.0,3.0,69,0.00,,,0.01,weatherlink.com 1.10,2013-07-04 18:14:00,
2013-07-04 14:29:00,82.1,70.0,30.20,ENE,76,0.0,5.0,66,0.00,,,0.01,weatherlink.com 1.10,2013-07-04 18:29:00,
2013-07-04 14:44:00,83.6,72.0,30.20,WSW,245,1.0,5.0,67,0.00,,,0.01,weatherlink.com 1.10,2013-07-04 18:44:00,
2013-07-04 14:59:00,84.7,70.0,30.19,WSW,257,1.0,7.0,62,0.00,,,0.01,weatherlink.com 1.10,2013-07-04 18:59:00,
2013-07-04 15:14:00,84.8,70.0,30.19,North,356,1.0,4.0,61,0.00,,,0.01,weatherlink.com 1.10,2013-07-04 19:14:00,
2013-07-04 15:29:00,85.2,70.0,30.18,WSW,252,3.0,6.0,61,0.00,,,0.01,weatherlink.com 1.10,2013-07-04 19:29:00,
2013-07-04 15:44:00,85.7,71.0,30.18,WSW,243,2.0,8.0,62,0.00,,,0.01,weatherlink.com 1.10,2013-07-04 19:44:00,
2013-07-04 15:59:00,86.0,70.0,30.17,ESE,104,0.0,3.0,60,0.00,,,0.01,weatherlink.com 1.10,2013-07-04 19:59:00,
2013-07-04 16:14:00,87.0,72.0,30.16,ESE,118,1.0,2.0,61,0.00,,,0.01,weatherlink.com 1.10,2013-07-04 20:14:00,
2013-07-04 16:29:00,86.4,70.0,30.15,West,274,0.0,3.0,58,0.00,,,0.01,weatherlink.com 1.10,2013-07-04 20:29:00,
2013-07-04 16:44:00,86.4,70.0,30.15,SSW,208,0.0,5.0,58,0.00,,,0.01,weatherlink.com 1.10,2013-07-04 20:44:00,
2013-07-04 16:59:00,87.1,70.0,30.14,WNW,283,0.0,3.0,57,0.00,,,0.01,weatherlink.com 1.10,2013-07-04 20:59:00,
2013-07-04 17:14:00,88.0,73.0,30.14,NE,41,0.0,2.0,62,0.00,,,0.01,weatherlink.com 1.10,2013-07-04 21:14:00,
2013-07-04 17:29:00,89.4,71.0,30.14,WSW,241,1.0,2.0,54,0.00,,,0.01,weatherlink.com 1.10,2013-07-04 21:29:00,
2013-07-04 17:44:00,84.0,71.0,30.16,SW,225,5.0,7.0,64,0.00,,,0.01,weatherlink.com 1.10,2013-07-04 21:44:00,
2013-07-04 17:59:00,78.0,70.0,30.17,East,88,0.0,8.0,76,0.00,,,0.01,weatherlink.com 1.10,2013-07-04 21:59:00,
2013-07-04 18:14:00,75.3,71.0,30.17,West,277,0.0,3.0,87,0.04,,,0.05,weatherlink.com 1.10,2013-07-04 22:14:00,
2013-07-04 18:29:00,75.6,72.0,30.16,WSW,257,0.0,1.0,89,0.04,,,0.05,weatherlink.com 1.10,2013-07-04 22:29:00,
2013-07-04 18:44:00,76.1,72.0,30.16,SSW,208,0.0,0.0,88,0.04,,,0.05,weatherlink.com 1.10,2013-07-04 22:44:00,
2013-07-04 18:59:00,76.2,73.0,30.16,SSW,208,0.0,0.0,88,0.04,,,0.05,weatherlink.com 1.10,2013-07-04 22:59:00,
2013-07-04 19:14:00,75.5,73.0,30.16,SSW,208,0.0,0.0,90,0.00,,,0.05,weatherlink.com 1.10,2013-07-04 23:14:00,
2013-07-04 19:29:00,75.1,72.0,30.16,SSW,207,0.0,0.0,91,0.00,,,0.05,weatherlink.com 1.10,2013-07-04 23:29:00,
2013-07-04 19:44:00,74.8,73.0,30.16,SSW,207,0.0,0.0,93,0.00,,,0.05,weatherlink.com 1.10,2013-07-04 23:44:00,
2013-07-04 19:59:00,74.3,72.0,30.16,SSW,207,0.0,0.0,93,0.00,,,0.05,weatherlink.com 1.10,2013-07-04 23:59:00,
2013-07-04 20:14:00,74.2,72.0,30.17,SSW,208,0.0,1.0,94,0.00,,,0.05,weatherlink.com 1.10,2013-07-05 00:14:00,
2013-07-04 20:29:00,74.0,72.0,30.17,SSW,208,0.0,0.0,94,0.00,,,0.05,weatherlink.com 1.10,2013-07-05 00:29:00,
2013-07-04 20:44:00,73.8,72.0,30.17,SSW,207,0.0,0.0,94,0.00,,,0.05,weatherlink.com 1.10,2013-07-05 00:44:00,
2013-07-04 21:00:00,73.4,72.0,30.17,SSW,207,0.0,0.0,94,0.00,,,0.05,weatherlink.com 1.10,2013-07-05 01:00:00,
2013-07-04 21:15:00,73.1,72.0,30.17,SSW,207,0.0,0.0,95,0.00,,,0.05,weatherlink.com 1.10,2013-07-05 01:15:00,
2013-07-04 21:30:00,72.8,71.0,30.17,SSW,208,0.0,0.0,95,0.00,,,0.05,weatherlink.com 1.10,2013-07-05 01:30:00,
2013-07-04 21:45:00,72.4,71.0,30.17,SSW,207,0.0,0.0,95,0.00,,,0.05,weatherlink.com 1.10,2013-07-05 01:45:00,
2013-07-04 22:00:00,72.4,71.0,30.18,SSW,207,0.0,0.0,96,0.00,,,0.05,weatherlink.com 1.10,2013-07-05 02:00:00,
2013-07-04 22:15:00,72.0,71.0,30.18,SSW,207,0.0,0.0,95,0.00,,,0.05,weatherlink.com 1.10,2013-07-05 02:15:00,
2013-07-04 22:30:00,71.8,71.0,30.18,SSW,207,0.0,0.0,96,0.00,,,0.05,weatherlink.com 1.10,2013-07-05 02:30:00,
2013-07-04 22:45:00,71.8,71.0,30.18,SSW,208,0.0,0.0,96,0.00,,,0.05,weatherlink.com 1.10,2013-07-05 02:45:00,
2013-07-04 23:00:00,71.5,70.0,30.17,SSW,207,0.0,0.0,96,0.00,,,0.05,weatherlink.com 1.10,2013-07-05 03:00:00,
2013-07-04 23:15:00,71.0,70.0,30.18,SSE,162,0.0,0.0,96,0.00,,,0.05,weatherlink.com 1.10,2013-07-05 03:15:00,
2013-07-04 23:30:00,71.4,70.0,30.18,East,83,0.0,0.0,96,0.00,,,0.05,weatherlink.com 1.10,2013-07-05 03:30:00,
2013-07-04 23:45:00,71.3,70.0,30.18,East,84,0.0,0.0,96,0.00,,,0.05,weatherlink.com 1.10,2013-07-05 03:45:00,